createdAt,value
2022-11-24T00:01:25.660Z,-0.24
2022-11-24T00:04:04.521Z,-0.28
2022-11-24T00:06:33.503Z,-0.27
2022-11-24T00:09:01.410Z,-0.24
2022-11-24T00:11:31.010Z,-0.29
2022-11-24T00:13:59.167Z,-0.27
2022-11-24T00:16:34.679Z,-0.37
2022-11-24T00:19:04.458Z,-0.42
2022-11-24T00:21:32.207Z,-0.48
2022-11-24T00:23:59.859Z,-0.42
2022-11-24T00:26:30.026Z,-0.37
2022-11-24T00:28:59.170Z,-0.44
2022-11-24T00:31:34.061Z,-0.27
2022-11-24T00:34:07.388Z,-0.23
2022-11-24T00:36:36.021Z,-0.21
2022-11-24T00:39:08.100Z,-0.22
2022-11-24T00:41:35.311Z,-0.24
2022-11-24T00:44:03.003Z,-0.41
2022-11-24T00:46:30.103Z,-0.39
2022-11-24T00:48:58.051Z,-0.41
2022-11-24T00:51:33.116Z,-0.46
2022-11-24T00:54:01.445Z,-0.42
2022-11-24T00:56:29.838Z,-0.46
2022-11-24T00:58:57.373Z,-0.48
2022-11-24T01:01:27.212Z,-0.49
2022-11-24T01:03:57.604Z,-0.50
2022-11-24T01:06:26.710Z,-0.54
2022-11-24T01:08:54.665Z,-0.57
2022-11-24T01:11:23.097Z,-0.57
2022-11-24T01:13:57.603Z,-0.53
2022-11-24T01:16:34.487Z,-0.57
2022-11-24T01:19:03.883Z,-0.50
2022-11-24T01:21:30.934Z,-0.47
2022-11-24T01:23:58.239Z,-0.44
2022-11-24T01:26:25.325Z,-0.42
2022-11-24T01:28:57.215Z,-0.43
2022-11-24T01:31:25.636Z,-0.48
2022-11-24T01:33:53.203Z,-0.47
2022-11-24T01:36:21.130Z,-0.45
2022-11-24T01:38:48.384Z,-0.51
2022-11-24T01:41:21.782Z,-0.42
2022-11-24T01:43:49.813Z,-0.41
2022-11-24T01:46:19.815Z,-0.40
2022-11-24T01:48:58.292Z,-0.45
2022-11-24T01:51:28.841Z,-0.44
2022-11-24T01:54:24.438Z,-0.57
2022-11-24T01:56:57.271Z,-0.63
2022-11-24T01:59:25.965Z,-0.52
2022-11-24T02:01:53.727Z,-0.51
2022-11-24T02:04:27.969Z,-0.53
2022-11-24T02:06:59.390Z,-0.62
2022-11-24T02:09:59.652Z,-0.52
2022-11-24T02:12:27.586Z,-0.54
2022-11-24T02:15:15.625Z,-0.46
2022-11-24T02:17:42.750Z,-0.47
2022-11-24T02:20:11.085Z,-0.47
2022-11-24T02:23:00.897Z,-0.45
2022-11-24T02:25:46.266Z,-0.45
2022-11-24T02:28:17.560Z,-0.43
2022-11-24T02:30:45.055Z,-0.39
2022-11-24T02:33:13.204Z,-0.47
2022-11-24T02:35:40.423Z,-0.49
2022-11-24T02:38:07.820Z,-0.46
2022-11-24T02:40:35.362Z,-0.44
2022-11-24T02:43:08.143Z,-0.43
2022-11-24T02:45:35.191Z,-0.48
2022-11-24T02:48:02.476Z,-0.63
2022-11-24T02:50:29.619Z,-0.64
2022-11-24T02:52:56.621Z,-0.73
2022-11-24T02:55:23.870Z,-0.81
2022-11-24T02:57:50.901Z,-1.16
2022-11-24T03:00:18.625Z,-0.81
2022-11-24T03:02:45.881Z,-0.87
2022-11-24T03:05:13.668Z,-0.86
2022-11-24T03:07:40.829Z,-1.02
2022-11-24T03:10:08.296Z,-1.02
2022-11-24T03:12:35.472Z,-1.01
2022-11-24T03:15:03.424Z,-0.97
2022-11-24T03:17:31.317Z,-0.94
2022-11-24T03:20:04.316Z,-0.94
2022-11-24T03:22:32.195Z,-1.00
2022-11-24T03:24:59.433Z,-1.17
2022-11-24T03:27:26.856Z,-1.10
2022-11-24T03:29:53.955Z,-1.18
2022-11-24T03:32:21.070Z,-1.11
2022-11-24T03:34:48.136Z,-1.08
2022-11-24T03:37:15.921Z,-1.15
2022-11-24T03:39:43.025Z,-1.11
2022-11-24T03:42:10.251Z,-1.13
2022-11-24T03:44:37.430Z,-1.21
2022-11-24T03:47:04.571Z,-1.25
2022-11-24T03:49:31.894Z,-1.11
2022-11-24T03:52:02.681Z,-1.42
2022-11-24T03:54:34.038Z,-1.12
2022-11-24T03:57:01.244Z,-1.16
2022-11-24T03:59:28.327Z,-1.12
2022-11-24T04:01:55.423Z,-1.11
2022-11-24T04:04:22.530Z,-1.19
2022-11-24T04:06:49.560Z,-1.37
2022-11-24T04:09:16.806Z,-1.70
2022-11-24T04:12:02.298Z,-1.27
2022-11-24T04:14:29.317Z,-1.34
2022-11-24T04:16:56.268Z,-1.36
2022-11-24T04:19:23.270Z,-1.35
2022-11-24T04:21:50.253Z,-1.35
2022-11-24T04:24:17.228Z,-1.31
2022-11-24T04:26:44.150Z,-1.31
2022-11-24T04:29:11.357Z,-1.25
2022-11-24T04:31:38.360Z,-1.38
2022-11-24T04:34:05.349Z,-1.19
2022-11-24T04:36:32.389Z,-1.18
2022-11-24T04:39:20.160Z,-1.29
2022-11-24T04:41:47.730Z,-1.34
2022-11-24T04:44:14.794Z,-1.29
2022-11-24T04:46:41.724Z,-1.27
2022-11-24T04:49:11.822Z,-1.26
2022-11-24T04:51:39.878Z,-1.33
2022-11-24T04:54:09.844Z,-1.41
2022-11-24T04:56:36.829Z,-1.42
2022-11-24T04:59:07.984Z,-1.39
2022-11-24T05:01:35.891Z,-1.49
2022-11-24T05:04:02.953Z,-1.53
2022-11-24T05:06:30.198Z,-1.58
2022-11-24T05:08:57.099Z,-1.56
2022-11-24T05:11:24.104Z,-1.47
2022-11-24T05:13:53.541Z,-1.54
2022-11-24T05:16:20.556Z,-1.51
2022-11-24T05:18:47.571Z,-1.52
2022-11-24T05:21:14.945Z,-1.48
2022-11-24T05:23:42.098Z,-1.47
2022-11-24T05:26:09.264Z,-1.53
2022-11-24T05:28:36.263Z,-1.48
2022-11-24T05:31:04.485Z,-1.50
2022-11-24T05:33:33.626Z,-1.42
2022-11-24T05:36:05.524Z,-1.50
2022-11-24T05:38:33.957Z,-1.33
2022-11-24T05:41:05.367Z,-1.32
2022-11-24T05:43:32.521Z,-1.34
2022-11-24T05:46:00.732Z,-1.30
2022-11-24T05:48:28.184Z,-1.49
2022-11-24T05:50:56.311Z,-1.43
2022-11-24T05:53:23.910Z,-1.42
2022-11-24T05:55:50.935Z,-1.36
2022-11-24T05:58:18.056Z,-1.34
2022-11-24T06:00:45.051Z,-1.31
2022-11-24T06:03:12.673Z,-1.36
2022-11-24T06:05:40.398Z,-1.32
2022-11-24T06:08:07.333Z,-1.37
2022-11-24T06:10:34.278Z,-1.34
2022-11-24T06:13:06.255Z,-1.30
2022-11-24T06:15:34.054Z,-1.30
2022-11-24T06:18:00.983Z,-1.32
2022-11-24T06:20:32.457Z,-1.31
2022-11-24T06:23:01.228Z,-1.31
2022-11-24T06:25:29.359Z,-1.24
2022-11-24T06:27:56.422Z,-1.24
2022-11-24T06:30:23.453Z,-1.26
2022-11-24T06:32:55.074Z,-1.18
2022-11-24T06:35:22.147Z,-1.15
2022-11-24T06:37:49.118Z,-1.17
2022-11-24T06:40:16.445Z,-1.13
2022-11-24T06:42:43.339Z,-1.21
2022-11-24T06:45:10.539Z,-1.22
2022-11-24T06:47:37.633Z,-1.18
2022-11-24T06:50:05.057Z,-1.19
2022-11-24T06:52:32.684Z,-1.14
2022-11-24T06:54:59.762Z,-1.05
2022-11-24T06:57:29.570Z,-1.03
2022-11-24T06:59:57.407Z,-0.96
2022-11-24T07:02:24.559Z,-0.97
2022-11-24T07:04:51.536Z,-0.93
2022-11-24T07:07:18.588Z,-0.96
2022-11-24T07:09:45.626Z,-1.00
2022-11-24T07:12:12.559Z,-1.00
2022-11-24T07:14:39.526Z,-1.04
2022-11-24T07:17:07.435Z,-1.05
2022-11-24T07:19:34.502Z,-1.06
2022-11-24T07:22:01.396Z,-1.10
2022-11-24T07:24:28.281Z,-1.03
2022-11-24T07:26:55.218Z,-0.96
2022-11-24T07:29:22.160Z,-0.86
2022-11-24T07:31:49.090Z,-0.83
2022-11-24T07:34:16.035Z,-0.81
2022-11-24T07:36:43.074Z,-0.71
2022-11-24T07:39:10.066Z,-0.65
2022-11-24T07:41:37.097Z,-0.64
2022-11-24T07:44:04.299Z,-0.56
2022-11-24T07:46:31.240Z,-0.62
2022-11-24T07:48:58.270Z,-0.50
2022-11-24T07:51:25.196Z,-0.52
2022-11-24T07:53:52.170Z,-0.41
2022-11-24T07:56:19.081Z,-0.42
2022-11-24T07:58:51.381Z,-0.32
2022-11-24T08:01:20.298Z,-0.29
2022-11-24T08:03:47.900Z,-0.21
2022-11-24T08:06:38.504Z,-0.25
2022-11-24T08:09:02.108Z,-0.34
2022-11-24T08:11:31.730Z,-0.35
2022-11-24T08:13:58.863Z,-0.34
2022-11-24T08:16:25.781Z,-0.35
2022-11-24T08:18:55.091Z,-0.32
2022-11-24T08:21:26.014Z,-0.19
2022-11-24T08:23:57.171Z,-0.12
2022-11-24T08:26:25.440Z,-0.07
2022-11-24T08:28:58.480Z,-0.03
2022-11-24T08:31:32.863Z,-0.06
2022-11-24T08:34:00.672Z,-0.03
2022-11-24T08:36:27.636Z,0.04
2022-11-24T08:38:56.771Z,0.11
2022-11-24T08:41:24.535Z,0.13
2022-11-24T08:43:51.723Z,0.12
2022-11-24T08:46:19.458Z,0.12
2022-11-24T08:48:51.134Z,0.10
2022-11-24T08:51:23.306Z,0.07
2022-11-24T08:53:58.502Z,-0.04
2022-11-24T08:56:30.359Z,0.06
2022-11-24T08:58:58.015Z,-0.17
2022-11-24T09:01:26.328Z,0.02
2022-11-24T09:03:53.477Z,-0.10
2022-11-24T09:06:23.861Z,-0.21
2022-11-24T09:08:52.195Z,-0.26
2022-11-24T09:11:19.769Z,-0.43
2022-11-24T09:13:46.874Z,-0.32
2022-11-24T09:16:17.346Z,-0.31
2022-11-24T09:18:45.222Z,-0.26
2022-11-24T09:21:20.166Z,-0.22
2022-11-24T09:23:49.269Z,-0.08
2022-11-24T09:26:25.991Z,-0.02
2022-11-24T09:28:54.649Z,0.04
2022-11-24T09:31:24.234Z,-0.06
2022-11-24T09:33:52.494Z,-0.01
2022-11-24T09:36:20.460Z,-0.04
2022-11-24T09:38:48.302Z,-0.06
2022-11-24T09:41:15.249Z,-0.05
2022-11-24T09:44:06.972Z,-0.01
2022-11-24T09:46:42.902Z,0.06
2022-11-24T09:49:41.976Z,0.02
2022-11-24T09:52:14.574Z,-0.01
2022-11-24T09:54:54.315Z,-0.04
2022-11-24T09:57:24.616Z,-0.01
2022-11-24T09:59:51.594Z,-0.03
2022-11-24T10:02:18.518Z,-0.02
2022-11-24T10:04:47.202Z,-0.10
2022-11-24T10:07:30.813Z,-0.18
2022-11-24T10:10:09.621Z,-0.41
2022-11-24T10:13:15.278Z,-0.16
2022-11-24T10:15:54.966Z,-0.11
2022-11-24T10:18:40.257Z,-0.01
2022-11-24T10:21:25.509Z,-0.01
2022-11-24T10:23:55.089Z,0.02
2022-11-24T10:26:38.670Z,0.01
2022-11-24T10:29:30.700Z,0.02
2022-11-24T10:31:58.138Z,0.05
2022-11-24T10:34:37.714Z,-0.41
2022-11-24T10:37:24.913Z,0.07
2022-11-24T10:41:00.463Z,0.09
2022-11-24T10:43:28.677Z,-0.08
2022-11-24T10:46:10.813Z,-0.03
2022-11-24T10:48:44.066Z,-0.03
2022-11-24T10:51:37.423Z,-0.05
2022-11-24T10:54:24.125Z,-0.10
2022-11-24T10:56:52.978Z,-0.04
2022-11-24T10:59:25.678Z,-0.05
2022-11-24T11:01:53.402Z,-0.10
2022-11-24T11:04:40.626Z,-0.06
2022-11-24T11:07:18.859Z,-0.18
2022-11-24T11:09:47.647Z,-0.10
2022-11-24T11:12:45.769Z,-0.23
2022-11-24T11:15:22.013Z,-0.21
2022-11-24T11:17:50.580Z,-0.35
2022-11-24T11:20:32.822Z,-0.47
2022-11-24T11:23:04.941Z,-0.50
2022-11-24T11:25:36.333Z,-0.51
2022-11-24T11:28:29.184Z,-0.48
2022-11-24T11:31:20.571Z,-0.83
2022-11-24T11:34:07.299Z,-0.46
2022-11-24T11:36:45.177Z,-0.54
2022-11-24T11:39:33.154Z,-0.50
2022-11-24T11:42:31.434Z,-0.44
2022-11-24T11:45:11.014Z,-0.52
2022-11-24T11:47:46.323Z,-0.48
2022-11-24T11:50:16.429Z,-0.60
2022-11-24T11:53:18.474Z,-0.67
2022-11-24T11:56:16.629Z,-0.57
2022-11-24T11:59:20.389Z,-0.80
2022-11-24T12:02:09.065Z,-0.62
2022-11-24T12:04:39.054Z,-0.69
2022-11-24T12:07:05.968Z,-0.63
2022-11-24T12:09:51.505Z,-0.74
2022-11-24T12:12:55.562Z,-0.74
2022-11-24T12:15:41.077Z,-0.76
2022-11-24T12:18:55.743Z,-0.69
2022-11-24T12:21:27.776Z,-0.69
2022-11-24T12:24:09.984Z,-0.66
2022-11-24T12:26:49.359Z,-0.70
2022-11-24T12:29:35.109Z,-0.60
2022-11-24T12:32:26.943Z,-0.53
2022-11-24T12:35:06.313Z,-0.55
2022-11-24T12:37:48.566Z,-0.67
2022-11-24T12:40:48.375Z,-0.62
2022-11-24T12:43:44.904Z,-0.74
2022-11-24T12:46:48.646Z,-1.17
2022-11-24T12:49:25.763Z,-0.96
2022-11-24T12:51:59.906Z,-0.93
2022-11-24T12:54:34.018Z,-1.05
2022-11-24T12:57:09.843Z,-1.20
2022-11-24T12:59:51.818Z,-1.04
2022-11-24T13:02:55.255Z,-1.03
2022-11-24T13:05:32.941Z,-1.03
2022-11-24T13:08:03.275Z,-1.04
2022-11-24T13:10:56.198Z,-1.14
2022-11-24T13:13:29.379Z,-1.13
2022-11-24T13:16:20.669Z,-1.14
2022-11-24T13:18:43.343Z,-1.18
2022-11-24T13:21:47.148Z,-1.13
2022-11-24T13:24:18.030Z,-1.59
2022-11-24T13:26:49.118Z,-1.28
2022-11-24T13:29:28.134Z,-1.21
2022-11-24T13:32:17.752Z,-1.15
2022-11-24T13:34:48.513Z,-1.12
2022-11-24T13:37:34.449Z,-1.12
2022-11-24T13:40:23.034Z,-1.10
2022-11-24T13:43:01.677Z,-1.21
2022-11-24T13:45:41.836Z,-1.20
2022-11-24T13:48:21.953Z,-1.16
2022-11-24T13:50:58.649Z,-1.23
2022-11-24T13:53:35.889Z,-1.26
2022-11-24T13:56:02.887Z,-1.24
2022-11-24T13:58:43.974Z,-1.18
2022-11-24T14:01:20.123Z,-1.14
2022-11-24T14:04:07.036Z,-1.24
2022-11-24T14:06:42.688Z,-1.20
2022-11-24T14:09:21.874Z,-1.18
2022-11-24T14:12:26.866Z,-1.26
2022-11-24T14:15:12.994Z,-1.31
2022-11-24T14:17:40.010Z,-1.39
2022-11-24T14:20:24.885Z,-1.39
2022-11-24T14:22:52.551Z,-1.53
2022-11-24T14:25:31.241Z,-1.70
2022-11-24T14:27:59.739Z,-1.58
2022-11-24T14:30:26.954Z,-1.59
2022-11-24T14:33:04.080Z,-1.55
2022-11-24T14:35:36.182Z,-1.49
2022-11-24T14:38:06.031Z,-1.55
2022-11-24T14:40:54.117Z,-1.49
2022-11-24T14:43:23.780Z,-1.55
2022-11-24T14:45:52.126Z,-1.48
2022-11-24T14:48:24.751Z,-1.41
2022-11-24T14:50:52.102Z,-1.34
2022-11-24T14:53:26.181Z,-1.54
2022-11-24T14:56:30.647Z,-1.66
2022-11-24T14:58:58.896Z,-1.57
2022-11-24T15:01:35.066Z,-1.54
2022-11-24T15:04:46.734Z,-1.52
2022-11-24T15:07:24.835Z,-1.56
2022-11-24T15:10:03.647Z,-1.56
2022-11-24T15:12:37.365Z,-1.54
2022-11-24T15:15:06.057Z,-1.53
2022-11-24T15:17:33.304Z,-1.86
2022-11-24T15:20:07.842Z,-2.09
2022-11-24T15:22:40.854Z,-2.04
2022-11-24T15:25:29.747Z,-1.97
2022-11-24T15:27:57.246Z,-1.97
2022-11-24T15:30:24.551Z,-1.91
2022-11-24T15:32:55.367Z,-2.06
2022-11-24T15:35:24.202Z,-2.01
2022-11-24T15:37:52.099Z,-2.07
2022-11-24T15:40:19.399Z,-2.04
2022-11-24T15:42:51.552Z,-2.25
2022-11-24T15:45:19.948Z,-2.35
2022-11-24T15:47:46.934Z,-2.36
2022-11-24T15:50:14.515Z,-2.40
2022-11-24T15:52:42.509Z,-2.33
2022-11-24T15:55:18.480Z,-2.19
2022-11-24T15:57:45.659Z,-2.17
2022-11-24T16:00:17.652Z,-2.23
2022-11-24T16:02:44.775Z,-2.38
2022-11-24T16:05:12.902Z,-2.52
2022-11-24T16:07:40.283Z,-2.50
2022-11-24T16:10:14.899Z,-2.46
2022-11-24T16:12:41.838Z,-2.45
2022-11-24T16:15:09.348Z,-2.45
2022-11-24T16:17:36.367Z,-2.50
2022-11-24T16:20:03.861Z,-2.52
2022-11-24T16:22:30.863Z,-2.51
2022-11-24T16:24:57.792Z,-2.59
2022-11-24T16:27:24.742Z,-2.40
2022-11-24T16:29:52.189Z,-2.53
2022-11-24T16:32:19.163Z,-2.35
2022-11-24T16:34:46.072Z,-2.41
2022-11-24T16:37:12.939Z,-2.39
2022-11-24T16:39:39.786Z,-2.47
2022-11-24T16:42:06.732Z,-2.56
2022-11-24T16:44:36.705Z,-2.43
2022-11-24T16:47:03.911Z,-2.74
2022-11-24T16:49:30.856Z,-2.44
2022-11-24T16:51:58.090Z,-2.40
2022-11-24T16:54:25.855Z,-2.47
2022-11-24T16:56:52.791Z,-2.47
2022-11-24T16:59:19.752Z,-2.36
2022-11-24T17:01:50.589Z,-2.50
2022-11-24T17:04:18.050Z,-2.51
2022-11-24T17:06:45.048Z,-2.46
2022-11-24T17:09:12.344Z,-2.39
2022-11-24T17:11:39.263Z,-2.40
2022-11-24T17:14:06.129Z,-2.43
2022-11-24T17:16:33.342Z,-2.46
2022-11-24T17:19:00.354Z,-2.41
2022-11-24T17:21:27.977Z,-2.59
2022-11-24T17:23:56.334Z,-2.50
2022-11-24T17:26:24.077Z,-2.60
2022-11-24T17:28:51.074Z,-2.55
2022-11-24T17:31:21.826Z,-2.56
2022-11-24T17:33:50.323Z,-2.44
2022-11-24T17:36:17.574Z,-2.42
2022-11-24T17:38:44.722Z,-2.40
2022-11-24T17:41:11.866Z,-2.66
2022-11-24T17:43:38.744Z,-2.52
2022-11-24T17:46:06.014Z,-2.57
2022-11-24T17:48:34.752Z,-2.62
2022-11-24T17:51:13.551Z,-2.75
2022-11-24T17:53:42.491Z,-2.45
2022-11-24T17:56:15.844Z,-2.63
2022-11-24T17:58:43.624Z,-2.79
2022-11-24T18:01:12.511Z,-2.73
2022-11-24T18:03:40.577Z,-2.66
2022-11-24T18:06:09.948Z,-2.63
2022-11-24T18:08:38.460Z,-2.46
2022-11-24T18:11:13.802Z,-2.36
2022-11-24T18:13:56.612Z,-2.68
2022-11-24T18:16:28.339Z,-2.57
2022-11-24T18:19:09.867Z,-2.51
2022-11-24T18:21:39.516Z,-2.63
2022-11-24T18:24:08.051Z,-2.62
2022-11-24T18:26:35.068Z,-2.65
2022-11-24T18:29:02.214Z,-2.70
2022-11-24T18:31:31.299Z,-2.62
2022-11-24T18:33:59.502Z,-2.50
2022-11-24T18:36:30.354Z,-2.53
2022-11-24T18:39:00.935Z,-2.71
2022-11-24T18:41:27.920Z,-2.67
2022-11-24T18:43:54.760Z,-2.55
2022-11-24T18:46:21.835Z,-2.44
2022-11-24T18:48:48.747Z,-2.42
2022-11-24T18:51:15.842Z,-2.53
2022-11-24T18:53:44.234Z,-2.52
2022-11-24T18:56:17.912Z,-2.42
2022-11-24T18:58:45.191Z,-2.61
2022-11-24T19:01:14.561Z,-2.67
2022-11-24T19:03:48.928Z,-2.55
2022-11-24T19:06:27.050Z,-2.53
2022-11-24T19:08:55.018Z,-2.57
2022-11-24T19:11:34.026Z,-2.56
2022-11-24T19:14:02.602Z,-2.56
2022-11-24T19:16:30.082Z,-2.59
2022-11-24T19:19:00.265Z,-2.53
2022-11-24T19:21:29.966Z,-2.61
2022-11-24T19:24:02.901Z,-2.63
2022-11-24T19:26:31.874Z,-2.55
2022-11-24T19:28:58.764Z,-2.63
2022-11-24T19:31:25.885Z,-2.57
2022-11-24T19:33:54.742Z,-2.50
2022-11-24T19:36:23.190Z,-2.42
2022-11-24T19:38:52.637Z,-2.49
2022-11-24T19:41:22.498Z,-2.48
2022-11-24T19:43:49.851Z,-2.63
2022-11-24T19:46:18.666Z,-2.58
2022-11-24T19:48:50.041Z,-2.47
2022-11-24T19:51:19.469Z,-2.44
2022-11-24T19:53:46.942Z,-2.43
2022-11-24T19:56:26.086Z,-2.78
2022-11-24T19:58:54.494Z,-2.51
2022-11-24T20:01:29.285Z,-2.56
2022-11-24T20:04:00.963Z,-2.59
2022-11-24T20:06:30.818Z,-2.62
2022-11-24T20:08:59.403Z,-2.63
2022-11-24T20:11:27.528Z,-2.60
2022-11-24T20:13:55.175Z,-2.80
2022-11-24T20:16:28.218Z,-3.03
2022-11-24T20:19:05.812Z,-3.02
2022-11-24T20:21:33.986Z,-3.00
2022-11-24T20:24:13.491Z,-2.77
2022-11-24T20:26:44.017Z,-2.83
2022-11-24T20:29:13.183Z,-2.75
2022-11-24T20:31:43.112Z,-2.64
2022-11-24T20:34:11.403Z,-2.61
2022-11-24T20:36:40.554Z,-2.75
2022-11-24T20:39:12.414Z,-2.78
2022-11-24T20:41:40.306Z,-2.70
2022-11-24T20:44:10.627Z,-2.60
2022-11-24T20:46:39.910Z,-2.66
2022-11-24T20:49:08.963Z,-2.63
2022-11-24T20:51:39.150Z,-2.57
2022-11-24T20:54:08.765Z,-2.66
2022-11-24T20:56:39.846Z,-2.65
2022-11-24T20:59:08.680Z,-2.61
2022-11-24T21:01:38.814Z,-2.57
2022-11-24T21:04:12.539Z,-2.56
2022-11-24T21:06:40.105Z,-2.56
2022-11-24T21:09:08.570Z,-2.53
2022-11-24T21:11:37.186Z,-2.52
2022-11-24T21:14:04.360Z,-2.52
2022-11-24T21:16:39.438Z,-2.68
2022-11-24T21:19:09.641Z,-2.69
2022-11-24T21:21:37.793Z,-2.78
2022-11-24T21:24:07.418Z,-2.88
2022-11-24T21:26:38.407Z,-2.72
2022-11-24T21:29:06.764Z,-2.93
2022-11-24T21:31:38.536Z,-2.83
2022-11-24T21:34:06.844Z,-2.75
2022-11-24T21:36:40.144Z,-2.72
2022-11-24T21:39:07.335Z,-2.63
2022-11-24T21:41:34.364Z,-2.59
2022-11-24T21:44:01.689Z,-2.63
2022-11-24T21:46:39.021Z,-2.58
2022-11-24T21:49:08.016Z,-2.62
2022-11-24T21:51:35.001Z,-2.74
2022-11-24T21:54:01.928Z,-2.66
2022-11-24T21:56:28.853Z,-2.59
2022-11-24T21:58:57.533Z,-2.63
2022-11-24T22:01:27.408Z,-2.55
2022-11-24T22:03:55.421Z,-2.53
2022-11-24T22:06:22.838Z,-2.41
2022-11-24T22:08:49.971Z,-2.40
2022-11-24T22:11:19.733Z,-2.51
2022-11-24T22:13:47.038Z,-2.61
2022-11-24T22:16:17.732Z,-2.62
2022-11-24T22:18:45.815Z,-2.63
2022-11-24T22:21:15.199Z,-2.79
2022-11-24T22:23:43.063Z,-2.74
2022-11-24T22:26:18.332Z,-2.99
2022-11-24T22:28:46.148Z,-2.84
2022-11-24T22:31:19.120Z,-2.71
2022-11-24T22:33:46.533Z,-2.64
2022-11-24T22:36:14.673Z,-2.70
2022-11-24T22:38:42.007Z,-2.80
2022-11-24T22:41:13.119Z,-2.72
2022-11-24T22:43:41.718Z,-2.71
2022-11-24T22:46:17.047Z,-2.61
2022-11-24T22:48:45.303Z,-2.73
2022-11-24T22:51:14.882Z,-2.78
2022-11-24T22:53:46.245Z,-2.76
2022-11-24T22:56:13.240Z,-2.76
2022-11-24T22:58:40.460Z,-2.71
2022-11-24T23:01:12.775Z,-2.85
2022-11-24T23:03:40.906Z,-2.69
2022-11-24T23:06:12.313Z,-2.60
2022-11-24T23:08:40.334Z,-2.77
2022-11-24T23:11:17.639Z,-2.67
2022-11-24T23:13:45.159Z,-2.73
2022-11-24T23:16:17.329Z,-2.60
2022-11-24T23:18:49.821Z,-2.65
2022-11-24T23:21:22.024Z,-2.83
2022-11-24T23:23:50.068Z,-2.77
2022-11-24T23:26:23.208Z,-2.78
2022-11-24T23:28:50.792Z,-2.78
2022-11-24T23:31:21.514Z,-2.76
2022-11-24T23:33:48.503Z,-2.91
2022-11-24T23:36:20.385Z,-2.82
2022-11-24T23:38:48.481Z,-3.04
2022-11-24T23:41:19.085Z,-2.93
2022-11-24T23:43:46.132Z,-2.88
2022-11-24T23:46:15.766Z,-2.86
2022-11-24T23:48:43.456Z,-2.76
2022-11-24T23:51:13.438Z,-2.86
2022-11-24T23:53:40.858Z,-2.85
2022-11-24T23:56:09.243Z,-2.93
2022-11-24T23:58:36.152Z,-2.88
